sensor_id;sensor_type;location;lat;lon;timestamp;P1;durP1;ratioP1;P2;durP2;ratioP2
52072;SDS011;38074;51.232;6.826;2023-09-30T00:02:35;1.40;;;0.80;;
52072;SDS011;38074;51.232;6.826;2023-09-30T00:09:50;2.70;;;0.90;;
52072;SDS011;38074;51.232;6.826;2023-09-30T00:17:06;3.07;;;0.70;;
52072;SDS011;38074;51.232;6.826;2023-09-30T00:24:22;1.63;;;0.63;;
52072;SDS011;38074;51.232;6.826;2023-09-30T00:31:37;2.57;;;0.70;;
52072;SDS011;38074;51.232;6.826;2023-09-30T00:38:53;2.20;;;0.90;;
52072;SDS011;38074;51.232;6.826;2023-09-30T00:46:25;2.43;;;0.97;;
52072;SDS011;38074;51.232;6.826;2023-09-30T00:53:43;1.58;;;0.82;;
52072;SDS011;38074;51.232;6.826;2023-09-30T01:00:59;2.40;;;0.70;;
52072;SDS011;38074;51.232;6.826;2023-09-30T01:08:16;1.87;;;0.53;;
52072;SDS011;38074;51.232;6.826;2023-09-30T01:15:32;2.03;;;0.75;;
52072;SDS011;38074;51.232;6.826;2023-09-30T01:22:48;1.77;;;0.83;;
52072;SDS011;38074;51.232;6.826;2023-09-30T01:30:03;0.93;;;0.50;;
52072;SDS011;38074;51.232;6.826;2023-09-30T01:37:20;1.73;;;0.60;;
52072;SDS011;38074;51.232;6.826;2023-09-30T01:44:35;2.30;;;0.63;;
52072;SDS011;38074;51.232;6.826;2023-09-30T01:51:51;3.20;;;0.73;;
52072;SDS011;38074;51.232;6.826;2023-09-30T01:59:06;1.40;;;0.70;;
52072;SDS011;38074;51.232;6.826;2023-09-30T02:06:22;2.10;;;0.70;;
52072;SDS011;38074;51.232;6.826;2023-09-30T02:13:37;1.57;;;0.63;;
52072;SDS011;38074;51.232;6.826;2023-09-30T02:20:53;3.17;;;0.80;;
52072;SDS011;38074;51.232;6.826;2023-09-30T02:28:08;2.77;;;0.53;;
52072;SDS011;38074;51.232;6.826;2023-09-30T02:35:24;2.27;;;0.80;;
52072;SDS011;38074;51.232;6.826;2023-09-30T02:42:41;2.42;;;0.70;;
52072;SDS011;38074;51.232;6.826;2023-09-30T02:49:56;1.97;;;0.50;;
52072;SDS011;38074;51.232;6.826;2023-09-30T02:57:12;1.87;;;0.63;;
52072;SDS011;38074;51.232;6.826;2023-09-30T03:04:28;1.23;;;0.63;;
52072;SDS011;38074;51.232;6.826;2023-09-30T03:11:45;1.97;;;0.80;;
52072;SDS011;38074;51.232;6.826;2023-09-30T03:19:01;3.60;;;0.95;;
52072;SDS011;38074;51.232;6.826;2023-09-30T03:26:23;1.88;;;0.65;;
52072;SDS011;38074;51.232;6.826;2023-09-30T03:33:38;3.27;;;0.80;;
52072;SDS011;38074;51.232;6.826;2023-09-30T03:40:54;1.43;;;0.53;;
52072;SDS011;38074;51.232;6.826;2023-09-30T03:48:10;1.30;;;0.60;;
52072;SDS011;38074;51.232;6.826;2023-09-30T03:55:26;1.70;;;0.60;;
52072;SDS011;38074;51.232;6.826;2023-09-30T04:02:42;1.20;;;0.63;;
52072;SDS011;38074;51.232;6.826;2023-09-30T04:09:58;0.97;;;0.60;;
52072;SDS011;38074;51.232;6.826;2023-09-30T04:17:16;2.92;;;0.45;;
52072;SDS011;38074;51.232;6.826;2023-09-30T04:24:31;0.80;;;0.40;;
52072;SDS011;38074;51.232;6.826;2023-09-30T04:31:47;2.50;;;0.80;;
52072;SDS011;38074;51.232;6.826;2023-09-30T04:39:02;1.10;;;0.57;;
52072;SDS011;38074;51.232;6.826;2023-09-30T04:46:19;1.25;;;0.57;;
52072;SDS011;38074;51.232;6.826;2023-09-30T04:53:38;1.65;;;0.60;;
52072;SDS011;38074;51.232;6.826;2023-09-30T05:00:54;1.53;;;0.63;;
52072;SDS011;38074;51.232;6.826;2023-09-30T05:08:09;2.03;;;0.53;;
52072;SDS011;38074;51.232;6.826;2023-09-30T05:15:27;1.75;;;0.50;;
52072;SDS011;38074;51.232;6.826;2023-09-30T05:22:44;1.45;;;0.50;;
52072;SDS011;38074;51.232;6.826;2023-09-30T05:30:00;1.63;;;0.50;;
52072;SDS011;38074;51.232;6.826;2023-09-30T05:37:16;1.60;;;0.65;;
52072;SDS011;38074;51.232;6.826;2023-09-30T05:44:31;1.40;;;0.40;;
52072;SDS011;38074;51.232;6.826;2023-09-30T05:51:47;1.60;;;0.50;;
52072;SDS011;38074;51.232;6.826;2023-09-30T05:59:03;1.73;;;0.67;;
52072;SDS011;38074;51.232;6.826;2023-09-30T06:06:20;2.03;;;0.47;;
52072;SDS011;38074;51.232;6.826;2023-09-30T06:13:35;3.87;;;1.43;;
52072;SDS011;38074;51.232;6.826;2023-09-30T06:20:51;4.27;;;1.47;;
52072;SDS011;38074;51.232;6.826;2023-09-30T06:28:07;4.63;;;2.40;;
52072;SDS011;38074;51.232;6.826;2023-09-30T06:35:23;6.23;;;2.53;;
52072;SDS011;38074;51.232;6.826;2023-09-30T06:42:39;5.88;;;2.55;;
52072;SDS011;38074;51.232;6.826;2023-09-30T06:49:55;5.63;;;2.03;;
52072;SDS011;38074;51.232;6.826;2023-09-30T06:57:10;12.13;;;3.80;;
52072;SDS011;38074;51.232;6.826;2023-09-30T07:04:26;10.20;;;3.60;;
52072;SDS011;38074;51.232;6.826;2023-09-30T07:11:41;9.85;;;3.15;;
52072;SDS011;38074;51.232;6.826;2023-09-30T07:18:57;9.00;;;2.30;;
52072;SDS011;38074;51.232;6.826;2023-09-30T07:26:12;10.73;;;5.00;;
52072;SDS011;38074;51.232;6.826;2023-09-30T07:33:28;6.80;;;2.53;;
52072;SDS011;38074;51.232;6.826;2023-09-30T07:40:44;7.97;;;2.67;;
52072;SDS011;38074;51.232;6.826;2023-09-30T07:48:00;5.88;;;2.47;;
52072;SDS011;38074;51.232;6.826;2023-09-30T07:55:19;6.75;;;2.90;;
52072;SDS011;38074;51.232;6.826;2023-09-30T08:02:35;9.60;;;3.15;;
52072;SDS011;38074;51.232;6.826;2023-09-30T08:09:51;11.80;;;3.75;;
52072;SDS011;38074;51.232;6.826;2023-09-30T08:17:06;7.93;;;3.20;;
52072;SDS011;38074;51.232;6.826;2023-09-30T08:24:22;9.50;;;2.67;;
52072;SDS011;38074;51.232;6.826;2023-09-30T08:31:38;8.88;;;3.63;;
52072;SDS011;38074;51.232;6.826;2023-09-30T08:38:53;7.13;;;2.90;;
52072;SDS011;38074;51.232;6.826;2023-09-30T08:46:09;6.93;;;3.20;;
52072;SDS011;38074;51.232;6.826;2023-09-30T08:53:24;5.93;;;2.70;;
52072;SDS011;38074;51.232;6.826;2023-09-30T09:00:40;10.50;;;2.70;;
52072;SDS011;38074;51.232;6.826;2023-09-30T09:07:57;6.05;;;2.20;;
52072;SDS011;38074;51.232;6.826;2023-09-30T09:15:20;7.67;;;3.00;;
52072;SDS011;38074;51.232;6.826;2023-09-30T09:22:44;6.97;;;2.28;;
52072;SDS011;38074;51.232;6.826;2023-09-30T09:30:13;6.13;;;2.25;;
52072;SDS011;38074;51.232;6.826;2023-09-30T09:37:36;5.63;;;1.97;;
52072;SDS011;38074;51.232;6.826;2023-09-30T09:44:54;4.63;;;1.88;;
52072;SDS011;38074;51.232;6.826;2023-09-30T09:52:11;5.55;;;1.75;;
52072;SDS011;38074;51.232;6.826;2023-09-30T09:59:30;6.32;;;2.17;;
52072;SDS011;38074;51.232;6.826;2023-09-30T10:06:46;4.07;;;2.00;;
52072;SDS011;38074;51.232;6.826;2023-09-30T10:14:07;5.43;;;2.00;;
52072;SDS011;38074;51.232;6.826;2023-09-30T10:21:29;4.82;;;2.22;;
52072;SDS011;38074;51.232;6.826;2023-09-30T10:28:45;7.03;;;2.80;;
52072;SDS011;38074;51.232;6.826;2023-09-30T10:36:02;7.93;;;2.42;;
52072;SDS011;38074;51.232;6.826;2023-09-30T10:50:50;5.95;;;2.88;;
52072;SDS011;38074;51.232;6.826;2023-09-30T10:58:07;5.90;;;2.38;;
52072;SDS011;38074;51.232;6.826;2023-09-30T11:05:22;7.25;;;2.70;;
52072;SDS011;38074;51.232;6.826;2023-09-30T11:12:38;6.20;;;2.58;;
52072;SDS011;38074;51.232;6.826;2023-09-30T11:19:54;5.45;;;2.40;;
52072;SDS011;38074;51.232;6.826;2023-09-30T11:27:09;6.07;;;2.63;;
52072;SDS011;38074;51.232;6.826;2023-09-30T11:34:31;7.47;;;3.72;;
52072;SDS011;38074;51.232;6.826;2023-09-30T11:41:49;9.43;;;3.80;;
52072;SDS011;38074;51.232;6.826;2023-09-30T11:49:05;6.43;;;2.83;;
52072;SDS011;38074;51.232;6.826;2023-09-30T11:56:23;9.43;;;4.47;;
52072;SDS011;38074;51.232;6.826;2023-09-30T12:03:45;9.18;;;5.95;;
52072;SDS011;38074;51.232;6.826;2023-09-30T12:11:02;8.63;;;3.72;;
52072;SDS011;38074;51.232;6.826;2023-09-30T12:18:18;7.37;;;2.90;;
52072;SDS011;38074;51.232;6.826;2023-09-30T12:25:38;6.65;;;2.83;;
52072;SDS011;38074;51.232;6.826;2023-09-30T12:32:54;5.30;;;2.37;;
52072;SDS011;38074;51.232;6.826;2023-09-30T12:40:10;12.10;;;6.55;;
52072;SDS011;38074;51.232;6.826;2023-09-30T12:47:26;18.40;;;11.70;;
52072;SDS011;38074;51.232;6.826;2023-09-30T12:54:42;10.30;;;6.30;;
52072;SDS011;38074;51.232;6.826;2023-09-30T13:01:57;11.68;;;6.90;;
52072;SDS011;38074;51.232;6.826;2023-09-30T13:09:13;9.43;;;6.73;;
52072;SDS011;38074;51.232;6.826;2023-09-30T13:16:28;10.73;;;6.77;;
52072;SDS011;38074;51.232;6.826;2023-09-30T13:23:44;9.48;;;7.03;;
52072;SDS011;38074;51.232;6.826;2023-09-30T13:31:00;8.97;;;6.33;;
52072;SDS011;38074;51.232;6.826;2023-09-30T13:38:16;8.38;;;6.18;;
52072;SDS011;38074;51.232;6.826;2023-09-30T13:45:32;9.33;;;6.17;;
52072;SDS011;38074;51.232;6.826;2023-09-30T13:52:47;7.57;;;5.13;;
52072;SDS011;38074;51.232;6.826;2023-09-30T14:00:03;8.07;;;5.47;;
52072;SDS011;38074;51.232;6.826;2023-09-30T14:07:21;7.35;;;4.88;;
52072;SDS011;38074;51.232;6.826;2023-09-30T14:14:38;6.68;;;4.82;;
52072;SDS011;38074;51.232;6.826;2023-09-30T14:21:53;6.85;;;4.97;;
52072;SDS011;38074;51.232;6.826;2023-09-30T14:29:09;6.97;;;4.27;;
52072;SDS011;38074;51.232;6.826;2023-09-30T14:36:27;5.50;;;3.88;;
52072;SDS011;38074;51.232;6.826;2023-09-30T14:43:42;5.83;;;4.17;;
52072;SDS011;38074;51.232;6.826;2023-09-30T14:50:58;5.60;;;3.73;;
52072;SDS011;38074;51.232;6.826;2023-09-30T14:58:13;5.90;;;3.97;;
52072;SDS011;38074;51.232;6.826;2023-09-30T15:05:29;4.85;;;3.47;;
52072;SDS011;38074;51.232;6.826;2023-09-30T15:12:44;4.97;;;3.47;;
52072;SDS011;38074;51.232;6.826;2023-09-30T15:20:00;4.15;;;3.15;;
52072;SDS011;38074;51.232;6.826;2023-09-30T15:27:16;4.68;;;2.88;;
52072;SDS011;38074;51.232;6.826;2023-09-30T15:34:35;3.75;;;2.80;;
52072;SDS011;38074;51.232;6.826;2023-09-30T15:41:53;3.72;;;2.40;;
52072;SDS011;38074;51.232;6.826;2023-09-30T15:49:08;3.55;;;2.58;;
52072;SDS011;38074;51.232;6.826;2023-09-30T15:56:24;4.45;;;2.72;;
52072;SDS011;38074;51.232;6.826;2023-09-30T16:03:39;3.28;;;2.33;;
52072;SDS011;38074;51.232;6.826;2023-09-30T16:10:57;3.92;;;2.50;;
52072;SDS011;38074;51.232;6.826;2023-09-30T16:18:13;2.70;;;2.10;;
52072;SDS011;38074;51.232;6.826;2023-09-30T16:25:28;2.97;;;2.23;;
52072;SDS011;38074;51.232;6.826;2023-09-30T16:32:44;2.70;;;1.88;;
52072;SDS011;38074;51.232;6.826;2023-09-30T16:39:59;2.38;;;1.70;;
52072;SDS011;38074;51.232;6.826;2023-09-30T16:47:15;3.95;;;1.95;;
52072;SDS011;38074;51.232;6.826;2023-09-30T16:54:31;2.42;;;1.70;;
52072;SDS011;38074;51.232;6.826;2023-09-30T17:01:46;2.83;;;1.80;;
52072;SDS011;38074;51.232;6.826;2023-09-30T17:09:02;2.08;;;1.30;;
52072;SDS011;38074;51.232;6.826;2023-09-30T17:16:21;2.63;;;1.88;;
52072;SDS011;38074;51.232;6.826;2023-09-30T17:23:37;2.78;;;1.38;;
52072;SDS011;38074;51.232;6.826;2023-09-30T17:30:52;2.40;;;1.52;;
52072;SDS011;38074;51.232;6.826;2023-09-30T17:38:08;2.05;;;1.33;;
52072;SDS011;38074;51.232;6.826;2023-09-30T17:45:24;2.72;;;1.85;;
52072;SDS011;38074;51.232;6.826;2023-09-30T17:52:39;2.08;;;1.35;;
52072;SDS011;38074;51.232;6.826;2023-09-30T17:59:55;2.42;;;1.38;;
52072;SDS011;38074;51.232;6.826;2023-09-30T18:07:11;2.58;;;1.67;;
52072;SDS011;38074;51.232;6.826;2023-09-30T18:14:27;1.90;;;1.15;;
52072;SDS011;38074;51.232;6.826;2023-09-30T18:21:42;2.03;;;1.15;;
52072;SDS011;38074;51.232;6.826;2023-09-30T18:28:58;2.47;;;1.45;;
52072;SDS011;38074;51.232;6.826;2023-09-30T18:36:13;2.10;;;1.30;;
52072;SDS011;38074;51.232;6.826;2023-09-30T18:43:29;1.73;;;0.95;;
52072;SDS011;38074;51.232;6.826;2023-09-30T18:50:47;2.43;;;1.30;;
52072;SDS011;38074;51.232;6.826;2023-09-30T18:58:04;2.22;;;1.27;;
52072;SDS011;38074;51.232;6.826;2023-09-30T19:05:21;2.30;;;1.43;;
52072;SDS011;38074;51.232;6.826;2023-09-30T19:12:36;1.40;;;0.98;;
52072;SDS011;38074;51.232;6.826;2023-09-30T19:19:52;2.20;;;1.40;;
52072;SDS011;38074;51.232;6.826;2023-09-30T19:27:07;2.03;;;1.23;;
52072;SDS011;38074;51.232;6.826;2023-09-30T19:34:25;1.95;;;1.23;;
52072;SDS011;38074;51.232;6.826;2023-09-30T19:41:40;2.20;;;1.70;;
52072;SDS011;38074;51.232;6.826;2023-09-30T19:48:56;2.47;;;1.50;;
52072;SDS011;38074;51.232;6.826;2023-09-30T19:56:13;2.03;;;1.23;;
52072;SDS011;38074;51.232;6.826;2023-09-30T20:03:28;2.23;;;1.30;;
52072;SDS011;38074;51.232;6.826;2023-09-30T20:10:44;1.93;;;1.20;;
52072;SDS011;38074;51.232;6.826;2023-09-30T20:17:59;1.80;;;1.13;;
52072;SDS011;38074;51.232;6.826;2023-09-30T20:25:15;2.13;;;1.67;;
52072;SDS011;38074;51.232;6.826;2023-09-30T20:32:31;1.90;;;1.20;;
52072;SDS011;38074;51.232;6.826;2023-09-30T20:39:47;2.55;;;1.50;;
52072;SDS011;38074;51.232;6.826;2023-09-30T20:47:03;1.77;;;1.10;;
52072;SDS011;38074;51.232;6.826;2023-09-30T20:54:21;1.85;;;1.17;;
52072;SDS011;38074;51.232;6.826;2023-09-30T21:01:39;2.03;;;1.20;;
52072;SDS011;38074;51.232;6.826;2023-09-30T21:08:54;2.13;;;1.33;;
52072;SDS011;38074;51.232;6.826;2023-09-30T21:16:13;1.65;;;1.13;;
52072;SDS011;38074;51.232;6.826;2023-09-30T21:23:28;1.65;;;1.10;;
52072;SDS011;38074;51.232;6.826;2023-09-30T21:30:44;2.00;;;1.30;;
52072;SDS011;38074;51.232;6.826;2023-09-30T21:38:00;1.95;;;1.17;;
52072;SDS011;38074;51.232;6.826;2023-09-30T21:45:16;2.20;;;1.27;;
52072;SDS011;38074;51.232;6.826;2023-09-30T21:52:32;2.40;;;1.13;;
52072;SDS011;38074;51.232;6.826;2023-09-30T21:59:47;1.73;;;1.30;;
52072;SDS011;38074;51.232;6.826;2023-09-30T22:07:04;1.70;;;1.20;;
52072;SDS011;38074;51.232;6.826;2023-09-30T22:14:19;1.50;;;1.00;;
52072;SDS011;38074;51.232;6.826;2023-09-30T22:21:36;1.97;;;1.40;;
52072;SDS011;38074;51.232;6.826;2023-09-30T22:28:51;1.63;;;1.20;;
52072;SDS011;38074;51.232;6.826;2023-09-30T22:36:07;2.23;;;1.43;;
52072;SDS011;38074;51.232;6.826;2023-09-30T22:43:22;2.10;;;1.30;;
52072;SDS011;38074;51.232;6.826;2023-09-30T22:57:55;2.00;;;1.48;;
52072;SDS011;38074;51.232;6.826;2023-09-30T23:05:10;1.73;;;1.05;;
52072;SDS011;38074;51.232;6.826;2023-09-30T23:12:27;1.85;;;1.25;;
52072;SDS011;38074;51.232;6.826;2023-09-30T23:19:43;1.63;;;1.08;;
52072;SDS011;38074;51.232;6.826;2023-09-30T23:26:58;1.75;;;1.27;;
52072;SDS011;38074;51.232;6.826;2023-09-30T23:34:19;1.90;;;1.27;;
52072;SDS011;38074;51.232;6.826;2023-09-30T23:41:34;1.67;;;1.17;;
52072;SDS011;38074;51.232;6.826;2023-09-30T23:48:53;1.50;;;1.17;;
52072;SDS011;38074;51.232;6.826;2023-09-30T23:56:08;2.37;;;1.20;;
